createdAt,value
2022-07-26T00:02:24.674Z,91.30
2022-07-26T00:05:10.349Z,91.20
2022-07-26T00:08:10.667Z,91.10
2022-07-26T00:10:56.454Z,91.50
2022-07-26T00:13:42.174Z,91.60
2022-07-26T00:16:28.502Z,91.50
2022-07-26T00:19:14.405Z,91.80
2022-07-26T00:22:18.692Z,92.30
2022-07-26T00:25:07.137Z,92.10
2022-07-26T00:27:53.170Z,92.40
2022-07-26T00:30:38.847Z,92.70
2022-07-26T00:33:24.556Z,92.50
2022-07-26T00:36:10.253Z,92.80
2022-07-26T00:38:55.762Z,92.70
2022-07-26T00:41:41.383Z,92.80
2022-07-26T00:44:40.491Z,92.80
2022-07-26T00:47:26.429Z,93.30
2022-07-26T00:50:15.485Z,93.50
2022-07-26T00:53:01.805Z,93.80
2022-07-26T00:55:49.850Z,93.70
2022-07-26T00:58:35.597Z,94.40
2022-07-26T01:01:21.191Z,94.20
2022-07-26T01:04:06.976Z,94.50
2022-07-26T01:06:53.401Z,94.70
2022-07-26T01:09:39.837Z,94.90
2022-07-26T01:12:25.720Z,95.10
2022-07-26T01:15:13.597Z,95.20
2022-07-26T01:18:00.059Z,95.60
2022-07-26T01:20:45.705Z,95.40
2022-07-26T01:23:31.595Z,95.60
2022-07-26T01:26:17.813Z,95.50
2022-07-26T01:29:05.298Z,95.80
2022-07-26T01:31:51.777Z,96.00
2022-07-26T01:34:37.573Z,96.20
2022-07-26T01:37:23.153Z,96.30
2022-07-26T01:40:09.418Z,96.90
2022-07-26T01:42:55.245Z,97.20
2022-07-26T01:45:41.065Z,97.40
2022-07-26T01:48:26.749Z,98.30
2022-07-26T01:51:12.534Z,98.60
2022-07-26T01:53:57.967Z,98.40
2022-07-26T01:56:43.487Z,99.20
2022-07-26T01:59:29.079Z,99.30
2022-07-26T02:02:18.742Z,99.30
2022-07-26T02:05:05.541Z,99.90
2022-07-26T02:07:51.033Z,99.90
2022-07-26T02:10:59.690Z,99.90
2022-07-26T02:13:53.774Z,99.90
2022-07-26T02:16:45.303Z,99.90
2022-07-26T02:19:32.169Z,99.90
2022-07-26T02:22:19.896Z,99.90
2022-07-26T02:25:05.899Z,99.90
2022-07-26T02:27:51.637Z,99.90
2022-07-26T02:30:38.209Z,99.90
2022-07-26T02:33:25.365Z,99.90
2022-07-26T02:36:10.934Z,99.90
2022-07-26T02:38:56.433Z,99.90
2022-07-26T02:41:42.516Z,99.90
2022-07-26T02:44:28.992Z,99.90
2022-07-26T02:47:14.791Z,99.90
2022-07-26T02:50:00.344Z,99.90
2022-07-26T02:52:49.452Z,99.90
2022-07-26T02:55:35.230Z,99.90
2022-07-26T02:58:21.663Z,99.90
2022-07-26T03:01:07.280Z,99.90
2022-07-26T03:03:54.152Z,99.90
2022-07-26T03:06:39.615Z,99.90
2022-07-26T03:09:25.151Z,99.90
2022-07-26T03:12:10.837Z,99.90
2022-07-26T03:14:56.245Z,99.90
2022-07-26T03:17:41.741Z,99.90
2022-07-26T03:20:27.272Z,99.90
2022-07-26T03:23:12.560Z,99.90
2022-07-26T03:25:58.176Z,99.90
2022-07-26T03:28:44.699Z,99.90
2022-07-26T03:31:30.127Z,99.90
2022-07-26T03:34:15.734Z,99.90
2022-07-26T03:37:01.277Z,99.90
2022-07-26T03:39:46.904Z,99.90
2022-07-26T03:42:32.487Z,99.90
2022-07-26T03:45:17.992Z,99.90
2022-07-26T03:48:03.865Z,99.90
2022-07-26T03:50:49.660Z,99.90
2022-07-26T03:53:35.152Z,99.90
2022-07-26T03:56:31.613Z,99.90
2022-07-26T03:59:18.733Z,99.90
2022-07-26T04:02:04.389Z,99.90
2022-07-26T04:04:49.617Z,99.90
2022-07-26T04:07:40.881Z,99.90
2022-07-26T04:10:27.209Z,99.90
2022-07-26T04:13:12.798Z,99.90
2022-07-26T04:15:58.458Z,99.90
2022-07-26T04:18:43.919Z,99.90
2022-07-26T04:21:29.412Z,99.90
2022-07-26T04:24:15.142Z,99.90
2022-07-26T04:27:00.677Z,99.90
2022-07-26T04:29:46.323Z,99.90
2022-07-26T04:32:32.078Z,99.90
2022-07-26T04:35:18.073Z,99.90
2022-07-26T04:38:04.231Z,99.90
2022-07-26T04:40:51.154Z,99.90
2022-07-26T04:43:37.045Z,99.90
2022-07-26T04:46:22.818Z,99.90
2022-07-26T04:49:08.265Z,99.90
2022-07-26T04:51:58.994Z,99.90
2022-07-26T04:54:44.873Z,99.90
2022-07-26T04:57:30.366Z,99.90
2022-07-26T05:00:23.005Z,99.90
2022-07-26T05:03:08.982Z,99.90
2022-07-26T05:05:54.523Z,99.90
2022-07-26T05:08:42.100Z,99.90
2022-07-26T05:11:28.254Z,99.90
2022-07-26T05:14:13.826Z,99.90
2022-07-26T05:16:59.455Z,99.90
2022-07-26T05:19:57.741Z,99.90
2022-07-26T05:22:45.141Z,99.90
2022-07-26T05:25:30.933Z,99.90
2022-07-26T05:28:16.494Z,99.90
2022-07-26T05:31:02.198Z,99.90
2022-07-26T05:33:47.841Z,99.90
2022-07-26T05:36:33.946Z,99.90
2022-07-26T05:39:19.466Z,99.90
2022-07-26T05:42:05.133Z,99.90
2022-07-26T05:44:50.900Z,99.90
2022-07-26T05:47:36.783Z,99.90
2022-07-26T05:50:22.525Z,99.90
2022-07-26T05:53:08.380Z,99.90
2022-07-26T05:55:54.526Z,99.90
2022-07-26T05:58:40.187Z,99.90
2022-07-26T06:01:25.717Z,99.90
2022-07-26T06:04:13.515Z,99.90
2022-07-26T06:06:59.552Z,99.90
2022-07-26T06:09:45.432Z,99.90
2022-07-26T06:12:31.032Z,99.90
2022-07-26T06:15:16.499Z,99.90
2022-07-26T06:18:02.511Z,99.90
2022-07-26T06:20:48.912Z,99.90
2022-07-26T06:23:35.250Z,99.90
2022-07-26T06:26:20.742Z,99.90
2022-07-26T06:29:06.262Z,99.90
2022-07-26T06:31:52.384Z,99.90
2022-07-26T06:34:38.007Z,99.90
2022-07-26T06:37:23.488Z,99.90
2022-07-26T06:40:10.902Z,99.90
2022-07-26T06:42:58.951Z,99.90
2022-07-26T06:45:49.380Z,99.90
2022-07-26T06:48:35.790Z,99.90
2022-07-26T06:51:22.498Z,99.90
2022-07-26T06:54:08.272Z,99.90
2022-07-26T06:56:54.207Z,99.90
2022-07-26T06:59:39.710Z,99.90
2022-07-26T07:02:26.391Z,99.90
2022-07-26T07:05:12.527Z,99.90
2022-07-26T07:07:58.411Z,99.90
2022-07-26T07:10:44.318Z,99.90
2022-07-26T07:13:30.332Z,99.90
2022-07-26T07:16:16.378Z,99.90
2022-07-26T07:19:02.162Z,99.90
2022-07-26T07:21:47.717Z,99.90
2022-07-26T07:24:33.553Z,99.90
2022-07-26T07:27:19.648Z,99.90
2022-07-26T07:30:08.321Z,99.90
2022-07-26T07:32:55.879Z,99.90
2022-07-26T07:35:42.604Z,99.90
2022-07-26T07:38:28.951Z,99.90
2022-07-26T07:41:16.016Z,99.90
2022-07-26T07:44:01.857Z,99.90
2022-07-26T07:46:47.637Z,99.90
2022-07-26T07:49:33.228Z,99.90
2022-07-26T07:52:18.894Z,99.90
2022-07-26T07:55:36.804Z,99.90
2022-07-26T07:58:10.492Z,99.90
2022-07-26T08:00:56.720Z,99.90
2022-07-26T08:03:42.164Z,99.90
2022-07-26T08:06:27.600Z,99.90
2022-07-26T08:09:13.906Z,99.90
2022-07-26T08:11:59.687Z,99.90
2022-07-26T08:14:46.258Z,99.90
2022-07-26T08:17:31.850Z,99.90
2022-07-26T08:20:20.703Z,99.90
2022-07-26T08:23:09.468Z,99.90
2022-07-26T08:25:58.015Z,99.90
2022-07-26T08:28:47.863Z,99.90
2022-07-26T08:31:34.148Z,99.90
2022-07-26T08:34:21.900Z,99.90
2022-07-26T08:37:17.151Z,99.90
2022-07-26T08:40:04.196Z,99.90
2022-07-26T08:42:55.724Z,99.90
2022-07-26T08:45:41.658Z,99.90
2022-07-26T08:48:27.454Z,99.90
2022-07-26T08:51:13.993Z,99.90
2022-07-26T08:54:05.769Z,99.90
2022-07-26T08:56:53.192Z,99.90
2022-07-26T08:59:39.455Z,99.90
2022-07-26T09:02:40.937Z,99.90
2022-07-26T09:05:37.071Z,99.90
2022-07-26T09:08:28.908Z,99.90
2022-07-26T09:11:23.682Z,99.90
2022-07-26T09:14:09.314Z,99.90
2022-07-26T09:16:59.850Z,99.90
2022-07-26T09:19:46.315Z,99.90
2022-07-26T09:22:32.167Z,99.90
2022-07-26T09:25:23.540Z,99.90
2022-07-26T09:28:26.496Z,99.90
2022-07-26T09:31:12.876Z,99.90
2022-07-26T09:34:00.031Z,99.90
2022-07-26T09:36:53.449Z,99.90
2022-07-26T09:40:09.764Z,99.90
2022-07-26T09:42:57.565Z,99.90
2022-07-26T09:45:43.408Z,99.90
2022-07-26T09:48:36.557Z,99.90
2022-07-26T09:51:39.703Z,99.90
2022-07-26T09:54:33.676Z,99.90
2022-07-26T09:57:20.814Z,99.90
2022-07-26T10:00:07.849Z,99.90
2022-07-26T10:02:54.383Z,99.90
2022-07-26T10:05:40.739Z,99.90
2022-07-26T10:08:27.684Z,99.90
2022-07-26T10:11:14.488Z,99.90
2022-07-26T10:14:00.134Z,99.90
2022-07-26T10:16:45.633Z,99.90
2022-07-26T10:19:45.404Z,99.90
2022-07-26T10:22:44.237Z,99.90
2022-07-26T10:25:32.641Z,99.90
2022-07-26T10:28:27.801Z,99.90
2022-07-26T10:31:30.480Z,99.90
2022-07-26T10:34:35.290Z,99.90
2022-07-26T10:37:23.773Z,99.90
2022-07-26T10:40:22.614Z,99.90
2022-07-26T10:43:38.885Z,99.90
2022-07-26T10:46:20.514Z,99.90
2022-07-26T10:49:09.281Z,99.90
2022-07-26T10:52:08.672Z,99.90
2022-07-26T10:54:57.917Z,99.90
2022-07-26T10:57:45.244Z,99.90
2022-07-26T11:00:30.866Z,99.90
2022-07-26T11:03:16.621Z,99.90
2022-07-26T11:06:29.071Z,99.90
2022-07-26T11:09:16.020Z,99.90
2022-07-26T11:12:18.269Z,99.90
2022-07-26T11:15:15.850Z,99.90
2022-07-26T11:18:28.238Z,99.90
2022-07-26T11:21:15.651Z,99.90
2022-07-26T11:24:03.917Z,99.90
2022-07-26T11:26:50.307Z,99.90
2022-07-26T11:29:38.512Z,99.90
2022-07-26T11:32:26.704Z,99.90
2022-07-26T11:35:12.670Z,99.90
2022-07-26T11:38:11.341Z,99.90
2022-07-26T11:40:57.780Z,99.90
2022-07-26T11:43:43.481Z,99.90
2022-07-26T11:46:38.470Z,99.90
2022-07-26T11:49:52.113Z,99.90
2022-07-26T11:52:32.647Z,99.90
2022-07-26T11:55:29.269Z,99.90
2022-07-26T11:58:14.836Z,99.90
2022-07-26T12:01:00.775Z,99.90
2022-07-26T12:03:49.452Z,99.90
2022-07-26T12:06:39.063Z,99.90
2022-07-26T12:09:36.394Z,99.90
2022-07-26T12:12:27.855Z,99.90
2022-07-26T12:15:15.623Z,99.90
2022-07-26T12:18:01.238Z,99.90
2022-07-26T12:21:02.151Z,99.90
2022-07-26T12:23:51.091Z,99.90
2022-07-26T12:26:37.494Z,99.90
2022-07-26T12:29:29.957Z,99.90
2022-07-26T12:32:18.753Z,99.90
2022-07-26T12:35:12.761Z,99.90
2022-07-26T12:37:58.631Z,99.90
2022-07-26T12:40:44.363Z,99.90
2022-07-26T12:43:41.694Z,99.90
2022-07-26T12:46:27.777Z,99.90
2022-07-26T12:49:13.653Z,99.90
2022-07-26T12:51:59.522Z,99.90
2022-07-26T12:54:48.860Z,99.90
2022-07-26T12:57:35.262Z,99.90
2022-07-26T13:00:22.979Z,99.90
2022-07-26T13:03:08.472Z,99.90
2022-07-26T13:05:54.164Z,99.90
2022-07-26T13:08:39.736Z,99.90
2022-07-26T13:11:25.664Z,99.90
2022-07-26T13:14:11.891Z,99.90
2022-07-26T13:16:59.934Z,99.90
2022-07-26T13:19:45.697Z,99.90
2022-07-26T13:22:31.400Z,99.90
2022-07-26T13:25:19.346Z,99.90
2022-07-26T13:28:06.070Z,99.90
2022-07-26T13:30:51.636Z,99.90
2022-07-26T13:33:39.269Z,99.90
2022-07-26T13:36:25.038Z,99.90
2022-07-26T13:39:11.101Z,99.90
2022-07-26T13:41:56.665Z,99.90
2022-07-26T13:44:42.544Z,99.90
2022-07-26T13:47:28.043Z,99.90
2022-07-26T13:50:13.530Z,99.90
2022-07-26T13:52:59.713Z,99.90
2022-07-26T13:55:45.519Z,99.90
2022-07-26T13:58:32.603Z,99.90
2022-07-26T14:01:18.613Z,99.90
2022-07-26T14:04:05.923Z,99.90
2022-07-26T14:06:52.440Z,99.90
2022-07-26T14:09:38.217Z,99.90
2022-07-26T14:12:23.657Z,99.90
2022-07-26T14:15:14.138Z,99.90
2022-07-26T14:18:04.689Z,99.90
2022-07-26T14:20:50.524Z,99.90
2022-07-26T14:23:36.053Z,99.90
2022-07-26T14:26:21.536Z,99.90
2022-07-26T14:29:07.090Z,99.90
2022-07-26T14:31:53.125Z,99.90
2022-07-26T14:34:39.717Z,99.90
2022-07-26T14:37:42.977Z,99.90
2022-07-26T14:40:30.845Z,99.90
2022-07-26T14:43:16.494Z,99.90
2022-07-26T14:46:03.034Z,99.90
2022-07-26T14:48:54.374Z,99.90
2022-07-26T14:51:40.570Z,99.90
2022-07-26T14:54:26.241Z,99.90
2022-07-26T14:57:11.833Z,99.90
2022-07-26T14:59:59.249Z,99.90
2022-07-26T15:02:47.449Z,99.90
2022-07-26T15:05:33.128Z,99.90
2022-07-26T15:08:18.745Z,99.90
2022-07-26T15:11:05.577Z,99.90
2022-07-26T15:13:51.223Z,99.90
2022-07-26T15:16:37.157Z,99.90
2022-07-26T15:19:25.650Z,99.90
2022-07-26T15:22:11.441Z,99.90
2022-07-26T15:24:56.973Z,99.90
2022-07-26T15:27:42.502Z,99.90
2022-07-26T15:30:28.390Z,99.90
2022-07-26T15:33:14.597Z,99.90
2022-07-26T15:36:04.036Z,99.90
2022-07-26T15:38:51.440Z,99.90
2022-07-26T15:41:37.905Z,99.90
2022-07-26T15:44:24.295Z,99.90
2022-07-26T15:47:11.752Z,99.90
2022-07-26T15:49:57.467Z,99.90
2022-07-26T15:52:48.388Z,99.90
2022-07-26T15:55:34.019Z,99.90
2022-07-26T15:58:21.181Z,99.90
2022-07-26T16:01:07.188Z,99.90
2022-07-26T16:03:52.918Z,99.90
2022-07-26T16:06:38.527Z,99.90
2022-07-26T16:09:24.501Z,99.90
2022-07-26T16:12:10.549Z,99.90
2022-07-26T16:14:56.089Z,99.90
2022-07-26T16:17:41.904Z,99.90
2022-07-26T16:20:27.841Z,99.90
2022-07-26T16:23:13.345Z,99.90
2022-07-26T16:25:59.289Z,99.90
2022-07-26T16:28:45.093Z,99.90
2022-07-26T16:31:31.356Z,99.90
2022-07-26T16:34:17.327Z,99.90
2022-07-26T16:37:04.154Z,99.90
2022-07-26T16:39:49.709Z,99.90
2022-07-26T16:42:35.268Z,99.90
2022-07-26T16:45:20.789Z,99.90
2022-07-26T16:48:06.889Z,99.90
2022-07-26T16:50:53.226Z,99.90
2022-07-26T16:53:39.848Z,99.90
2022-07-26T16:56:25.512Z,99.90
2022-07-26T16:59:11.738Z,99.90
2022-07-26T17:02:01.617Z,99.90
2022-07-26T17:04:48.675Z,99.90
2022-07-26T17:07:38.302Z,99.90
2022-07-26T17:10:24.473Z,99.90
2022-07-26T17:13:10.539Z,99.90
2022-07-26T17:15:56.513Z,99.90
2022-07-26T17:18:42.698Z,99.90
2022-07-26T17:21:29.080Z,99.90
2022-07-26T17:24:16.143Z,99.90
2022-07-26T17:27:02.146Z,99.90
2022-07-26T17:29:48.105Z,99.90
2022-07-26T17:32:34.376Z,99.90
2022-07-26T17:35:20.427Z,99.90
2022-07-26T17:38:07.783Z,99.90
2022-07-26T17:40:54.052Z,99.90
2022-07-26T17:43:39.650Z,99.90
2022-07-26T17:46:25.477Z,99.90
2022-07-26T17:49:12.398Z,99.90
2022-07-26T17:51:58.717Z,99.90
2022-07-26T17:54:44.499Z,99.90
2022-07-26T17:57:31.220Z,99.90
2022-07-26T18:00:21.171Z,99.90
2022-07-26T18:03:07.030Z,99.90
2022-07-26T18:05:52.826Z,99.90
2022-07-26T18:08:38.595Z,99.90
2022-07-26T18:11:24.767Z,99.90
2022-07-26T18:14:11.584Z,99.90
2022-07-26T18:16:58.074Z,99.90
2022-07-26T18:19:44.347Z,99.90
2022-07-26T18:22:30.595Z,99.90
2022-07-26T18:25:16.973Z,99.90
2022-07-26T18:28:06.807Z,99.90
2022-07-26T18:30:53.318Z,99.90
2022-07-26T18:33:39.003Z,99.90
2022-07-26T18:36:24.892Z,99.90
2022-07-26T18:39:12.327Z,99.90
2022-07-26T18:41:58.673Z,99.90
2022-07-26T18:44:44.831Z,99.90
2022-07-26T18:47:30.569Z,99.90
2022-07-26T18:50:17.250Z,99.90
2022-07-26T18:53:03.050Z,99.90
2022-07-26T18:55:49.654Z,99.90
2022-07-26T18:58:35.293Z,99.90
2022-07-26T19:01:20.878Z,99.90
2022-07-26T19:04:07.358Z,99.90
2022-07-26T19:06:53.249Z,99.90
2022-07-26T19:09:39.116Z,99.90
2022-07-26T19:12:24.653Z,99.90
2022-07-26T19:15:10.494Z,99.90
2022-07-26T19:17:56.692Z,99.90
2022-07-26T19:20:43.733Z,99.90
2022-07-26T19:23:29.687Z,99.90
2022-07-26T19:26:15.453Z,99.90
2022-07-26T19:29:01.215Z,99.90
2022-07-26T19:31:46.961Z,99.90
2022-07-26T19:34:32.677Z,99.90
2022-07-26T19:37:21.809Z,99.90
2022-07-26T19:40:08.077Z,99.90
2022-07-26T19:42:53.666Z,99.90
2022-07-26T19:45:39.604Z,99.90
2022-07-26T19:48:25.111Z,99.90
2022-07-26T19:51:10.599Z,99.90
2022-07-26T19:53:56.089Z,99.90
2022-07-26T19:56:41.921Z,99.90
2022-07-26T19:59:27.423Z,99.90
2022-07-26T20:02:13.661Z,99.90
2022-07-26T20:05:00.649Z,99.90
2022-07-26T20:07:50.349Z,99.90
2022-07-26T20:10:36.224Z,99.90
2022-07-26T20:13:22.141Z,99.90
2022-07-26T20:16:07.808Z,99.90
2022-07-26T20:18:53.452Z,99.90
2022-07-26T20:21:39.096Z,99.90
2022-07-26T20:24:26.068Z,99.90
2022-07-26T20:27:11.662Z,99.90
2022-07-26T20:30:00.924Z,99.90
2022-07-26T20:32:47.016Z,99.90
2022-07-26T20:35:32.425Z,99.90
2022-07-26T20:38:20.731Z,99.90
2022-07-26T20:41:06.711Z,99.90
2022-07-26T20:43:52.536Z,99.90
2022-07-26T20:46:40.178Z,99.90
2022-07-26T20:49:26.383Z,99.90
2022-07-26T20:52:11.720Z,99.90
2022-07-26T20:54:57.411Z,99.90
2022-07-26T20:57:43.343Z,99.90
2022-07-26T21:00:30.478Z,99.90
2022-07-26T21:03:17.251Z,99.90
2022-07-26T21:06:03.092Z,99.90
2022-07-26T21:08:48.673Z,99.90
2022-07-26T21:11:34.471Z,99.90
2022-07-26T21:14:20.296Z,99.90
2022-07-26T21:17:11.378Z,99.90
2022-07-26T21:19:57.730Z,99.90
2022-07-26T21:22:43.350Z,99.90
2022-07-26T21:25:28.853Z,99.90
2022-07-26T21:28:14.680Z,99.90
2022-07-26T21:31:00.557Z,99.90
2022-07-26T21:33:45.867Z,99.90
2022-07-26T21:36:31.474Z,99.90
2022-07-26T21:39:17.694Z,99.90
2022-07-26T21:42:03.332Z,99.90
2022-07-26T21:44:48.953Z,99.90
2022-07-26T21:47:34.697Z,99.90
2022-07-26T21:50:23.309Z,99.90
2022-07-26T21:53:09.089Z,99.90
2022-07-26T21:55:56.422Z,99.90
2022-07-26T21:58:41.967Z,99.90
2022-07-26T22:01:27.503Z,99.90
2022-07-26T22:04:13.095Z,99.90
2022-07-26T22:06:58.609Z,99.90
2022-07-26T22:09:44.129Z,99.90
2022-07-26T22:12:30.753Z,99.90
2022-07-26T22:15:16.387Z,99.90
2022-07-26T22:18:02.869Z,99.90
2022-07-26T22:20:49.871Z,99.90
2022-07-26T22:23:35.273Z,99.90
2022-07-26T22:26:25.995Z,99.90
2022-07-26T22:29:12.114Z,99.90
2022-07-26T22:31:57.981Z,99.90
2022-07-26T22:34:43.321Z,99.90
2022-07-26T22:37:28.905Z,99.90
2022-07-26T22:40:14.410Z,99.90
2022-07-26T22:43:00.493Z,99.90
2022-07-26T22:45:46.213Z,99.90
2022-07-26T22:48:35.860Z,99.90
2022-07-26T22:51:23.544Z,99.90
2022-07-26T22:54:09.155Z,99.90
2022-07-26T22:56:54.559Z,99.90
2022-07-26T22:59:40.016Z,99.90
2022-07-26T23:02:25.765Z,99.90
2022-07-26T23:05:12.109Z,99.90
2022-07-26T23:08:00.456Z,99.90
2022-07-26T23:10:49.155Z,99.90
2022-07-26T23:13:34.620Z,99.90
2022-07-26T23:16:20.177Z,99.90
2022-07-26T23:19:08.479Z,99.90
2022-07-26T23:21:54.232Z,99.90
2022-07-26T23:24:39.841Z,99.90
2022-07-26T23:27:28.929Z,99.90
2022-07-26T23:30:14.301Z,99.90
2022-07-26T23:32:59.849Z,99.90
2022-07-26T23:35:45.488Z,99.90
2022-07-26T23:38:31.071Z,99.90
2022-07-26T23:41:16.798Z,99.90
2022-07-26T23:44:02.571Z,99.90
2022-07-26T23:46:48.150Z,99.90
2022-07-26T23:49:33.646Z,99.90
2022-07-26T23:52:18.995Z,99.90
2022-07-26T23:55:04.769Z,99.90
2022-07-26T23:57:50.372Z,99.90
